sensor_id;sensor_type;location;lat;lon;timestamp;P1;P2;P0
43280;PMS5003;62175;49.416;8.690;2022-11-20T00:01:56;9;8;
43280;PMS5003;62175;49.416;8.690;2022-11-20T00:04:23;10;10;
43280;PMS5003;62175;49.416;8.690;2022-11-20T00:06:50;9;9;
43280;PMS5003;62175;49.416;8.690;2022-11-20T00:09:19;9;9;
43280;PMS5003;62175;49.416;8.690;2022-11-20T00:11:46;11;11;
43280;PMS5003;62175;49.416;8.690;2022-11-20T00:14:13;12;12;
43280;PMS5003;62175;49.416;8.690;2022-11-20T00:16:41;10;9;
43280;PMS5003;62175;49.416;8.690;2022-11-20T00:19:08;8;8;
43280;PMS5003;62175;49.416;8.690;2022-11-20T00:21:36;13;10;
43280;PMS5003;62175;49.416;8.690;2022-11-20T00:24:03;9;8;
43280;PMS5003;62175;49.416;8.690;2022-11-20T00:26:30;9;8;
43280;PMS5003;62175;49.416;8.690;2022-11-20T00:28:58;9;9;
43280;PMS5003;62175;49.416;8.690;2022-11-20T00:31:26;11;9;
43280;PMS5003;62175;49.416;8.690;2022-11-20T00:33:54;8;8;
43280;PMS5003;62175;49.416;8.690;2022-11-20T00:36:22;9;9;
43280;PMS5003;62175;49.416;8.690;2022-11-20T00:38:51;9;9;
43280;PMS5003;62175;49.416;8.690;2022-11-20T00:41:19;10;10;
43280;PMS5003;62175;49.416;8.690;2022-11-20T00:43:46;9;7;
43280;PMS5003;62175;49.416;8.690;2022-11-20T00:46:14;9;9;
43280;PMS5003;62175;49.416;8.690;2022-11-20T00:48:43;8;7;
43280;PMS5003;62175;49.416;8.690;2022-11-20T00:51:12;10;8;
43280;PMS5003;62175;49.416;8.690;2022-11-20T00:53:40;9;9;
43280;PMS5003;62175;49.416;8.690;2022-11-20T00:56:09;6;6;
43280;PMS5003;62175;49.416;8.690;2022-11-20T00:58:38;8;8;
43280;PMS5003;62175;49.416;8.690;2022-11-20T01:01:07;8;8;
43280;PMS5003;62175;49.416;8.690;2022-11-20T01:03:36;9;9;
43280;PMS5003;62175;49.416;8.690;2022-11-20T01:06:06;9;7;
43280;PMS5003;62175;49.416;8.690;2022-11-20T01:08:37;10;9;
43280;PMS5003;62175;49.416;8.690;2022-11-20T01:11:05;9;8;
43280;PMS5003;62175;49.416;8.690;2022-11-20T01:13:34;9;8;
43280;PMS5003;62175;49.416;8.690;2022-11-20T01:16:02;10;9;
43280;PMS5003;62175;49.416;8.690;2022-11-20T01:18:30;9;9;
43280;PMS5003;62175;49.416;8.690;2022-11-20T01:21:00;8;8;
43280;PMS5003;62175;49.416;8.690;2022-11-20T01:23:29;6;6;
43280;PMS5003;62175;49.416;8.690;2022-11-20T01:25:59;7;7;
43280;PMS5003;62175;49.416;8.690;2022-11-20T01:28:26;6;6;
43280;PMS5003;62175;49.416;8.690;2022-11-20T01:30:54;7;7;
43280;PMS5003;62175;49.416;8.690;2022-11-20T01:33:22;8;7;
43280;PMS5003;62175;49.416;8.690;2022-11-20T01:35:50;10;9;
43280;PMS5003;62175;49.416;8.690;2022-11-20T01:38:17;8;7;
43280;PMS5003;62175;49.416;8.690;2022-11-20T01:40:45;9;7;
43280;PMS5003;62175;49.416;8.690;2022-11-20T01:43:13;8;7;
43280;PMS5003;62175;49.416;8.690;2022-11-20T01:45:56;11;10;
43280;PMS5003;62175;49.416;8.690;2022-11-20T01:48:26;6;6;
43280;PMS5003;62175;49.416;8.690;2022-11-20T01:51:00;8;7;
43280;PMS5003;62175;49.416;8.690;2022-11-20T01:53:30;8;7;
43280;PMS5003;62175;49.416;8.690;2022-11-20T01:56:01;8;7;
43280;PMS5003;62175;49.416;8.690;2022-11-20T01:58:32;9;9;
43280;PMS5003;62175;49.416;8.690;2022-11-20T02:01:02;12;10;
43280;PMS5003;62175;49.416;8.690;2022-11-20T02:03:30;10;9;
43280;PMS5003;62175;49.416;8.690;2022-11-20T02:05:59;11;9;
43280;PMS5003;62175;49.416;8.690;2022-11-20T02:08:32;10;9;
43280;PMS5003;62175;49.416;8.690;2022-11-20T02:10:59;8;8;
43280;PMS5003;62175;49.416;8.690;2022-11-20T02:13:27;11;9;
43280;PMS5003;62175;49.416;8.690;2022-11-20T02:15:54;9;9;
43280;PMS5003;62175;49.416;8.690;2022-11-20T02:18:22;10;9;
43280;PMS5003;62175;49.416;8.690;2022-11-20T02:20:52;10;10;
43280;PMS5003;62175;49.416;8.690;2022-11-20T02:23:24;12;11;
43280;PMS5003;62175;49.416;8.690;2022-11-20T02:25:56;10;10;
43280;PMS5003;62175;49.416;8.690;2022-11-20T02:28:26;13;12;
43280;PMS5003;62175;49.416;8.690;2022-11-20T02:30:54;11;10;
43280;PMS5003;62175;49.416;8.690;2022-11-20T02:33:21;11;10;
43280;PMS5003;62175;49.416;8.690;2022-11-20T02:35:48;8;8;
43280;PMS5003;62175;49.416;8.690;2022-11-20T02:38:16;13;11;
43280;PMS5003;62175;49.416;8.690;2022-11-20T02:40:44;13;11;
43280;PMS5003;62175;49.416;8.690;2022-11-20T02:43:11;15;14;
43280;PMS5003;62175;49.416;8.690;2022-11-20T02:45:38;13;13;
43280;PMS5003;62175;49.416;8.690;2022-11-20T02:48:06;12;11;
43280;PMS5003;62175;49.416;8.690;2022-11-20T02:50:33;14;14;
43280;PMS5003;62175;49.416;8.690;2022-11-20T02:53:03;16;14;
43280;PMS5003;62175;49.416;8.690;2022-11-20T02:55:30;14;13;
43280;PMS5003;62175;49.416;8.690;2022-11-20T02:57:57;15;13;
43280;PMS5003;62175;49.416;8.690;2022-11-20T03:00:25;13;12;
43280;PMS5003;62175;49.416;8.690;2022-11-20T03:02:52;11;10;
43280;PMS5003;62175;49.416;8.690;2022-11-20T03:05:19;13;13;
43280;PMS5003;62175;49.416;8.690;2022-11-20T03:07:46;13;11;
43280;PMS5003;62175;49.416;8.690;2022-11-20T03:10:13;12;10;
43280;PMS5003;62175;49.416;8.690;2022-11-20T03:12:40;16;15;
43280;PMS5003;62175;49.416;8.690;2022-11-20T03:15:08;17;15;
43280;PMS5003;62175;49.416;8.690;2022-11-20T03:17:36;16;15;
43280;PMS5003;62175;49.416;8.690;2022-11-20T03:20:03;15;13;
43280;PMS5003;62175;49.416;8.690;2022-11-20T03:22:30;14;13;
43280;PMS5003;62175;49.416;8.690;2022-11-20T03:24:58;14;13;
43280;PMS5003;62175;49.416;8.690;2022-11-20T03:27:25;12;11;
43280;PMS5003;62175;49.416;8.690;2022-11-20T03:29:52;16;15;
43280;PMS5003;62175;49.416;8.690;2022-11-20T03:32:19;16;14;
43280;PMS5003;62175;49.416;8.690;2022-11-20T03:34:46;13;12;
43280;PMS5003;62175;49.416;8.690;2022-11-20T03:37:13;14;13;
43280;PMS5003;62175;49.416;8.690;2022-11-20T03:39:40;16;14;
43280;PMS5003;62175;49.416;8.690;2022-11-20T03:42:08;13;12;
43280;PMS5003;62175;49.416;8.690;2022-11-20T03:44:35;16;14;
43280;PMS5003;62175;49.416;8.690;2022-11-20T03:47:02;14;11;
43280;PMS5003;62175;49.416;8.690;2022-11-20T03:49:30;18;18;
43280;PMS5003;62175;49.416;8.690;2022-11-20T03:51:57;17;14;
43280;PMS5003;62175;49.416;8.690;2022-11-20T03:54:24;13;12;
43280;PMS5003;62175;49.416;8.690;2022-11-20T03:56:51;12;11;
43280;PMS5003;62175;49.416;8.690;2022-11-20T03:59:19;18;15;
43280;PMS5003;62175;49.416;8.690;2022-11-20T04:01:46;14;13;
43280;PMS5003;62175;49.416;8.690;2022-11-20T04:04:13;12;11;
43280;PMS5003;62175;49.416;8.690;2022-11-20T04:06:40;16;14;
43280;PMS5003;62175;49.416;8.690;2022-11-20T04:09:07;18;15;
43280;PMS5003;62175;49.416;8.690;2022-11-20T04:11:35;15;14;
43280;PMS5003;62175;49.416;8.690;2022-11-20T04:14:04;14;14;
43280;PMS5003;62175;49.416;8.690;2022-11-20T04:16:33;13;13;
43280;PMS5003;62175;49.416;8.690;2022-11-20T04:19:04;16;15;
43280;PMS5003;62175;49.416;8.690;2022-11-20T04:21:32;18;17;
43280;PMS5003;62175;49.416;8.690;2022-11-20T04:23:59;16;15;
43280;PMS5003;62175;49.416;8.690;2022-11-20T04:26:27;17;16;
43280;PMS5003;62175;49.416;8.690;2022-11-20T04:28:56;15;13;
43280;PMS5003;62175;49.416;8.690;2022-11-20T04:31:24;15;15;
43280;PMS5003;62175;49.416;8.690;2022-11-20T04:33:54;18;15;
43280;PMS5003;62175;49.416;8.690;2022-11-20T04:36:24;15;15;
43280;PMS5003;62175;49.416;8.690;2022-11-20T04:38:52;17;14;
43280;PMS5003;62175;49.416;8.690;2022-11-20T04:41:21;15;14;
43280;PMS5003;62175;49.416;8.690;2022-11-20T04:43:50;23;20;
43280;PMS5003;62175;49.416;8.690;2022-11-20T04:46:19;21;17;
43280;PMS5003;62175;49.416;8.690;2022-11-20T04:48:47;21;21;
43280;PMS5003;62175;49.416;8.690;2022-11-20T04:51:14;13;13;
43280;PMS5003;62175;49.416;8.690;2022-11-20T04:53:41;14;13;
43280;PMS5003;62175;49.416;8.690;2022-11-20T04:56:09;14;14;
43280;PMS5003;62175;49.416;8.690;2022-11-20T04:58:38;19;15;
43280;PMS5003;62175;49.416;8.690;2022-11-20T05:01:07;17;16;
43280;PMS5003;62175;49.416;8.690;2022-11-20T05:03:36;14;13;
43280;PMS5003;62175;49.416;8.690;2022-11-20T05:06:05;19;15;
43280;PMS5003;62175;49.416;8.690;2022-11-20T05:08:33;14;13;
43280;PMS5003;62175;49.416;8.690;2022-11-20T05:11:01;16;13;
43280;PMS5003;62175;49.416;8.690;2022-11-20T05:13:29;17;17;
43280;PMS5003;62175;49.416;8.690;2022-11-20T05:16:00;15;13;
43280;PMS5003;62175;49.416;8.690;2022-11-20T05:18:28;16;14;
43280;PMS5003;62175;49.416;8.690;2022-11-20T05:20:55;11;11;
43280;PMS5003;62175;49.416;8.690;2022-11-20T05:23:23;17;15;
43280;PMS5003;62175;49.416;8.690;2022-11-20T05:25:52;17;17;
43280;PMS5003;62175;49.416;8.690;2022-11-20T05:28:20;13;13;
43280;PMS5003;62175;49.416;8.690;2022-11-20T05:30:47;16;15;
43280;PMS5003;62175;49.416;8.690;2022-11-20T05:33:15;16;14;
43280;PMS5003;62175;49.416;8.690;2022-11-20T05:35:42;14;14;
43280;PMS5003;62175;49.416;8.690;2022-11-20T05:38:09;16;14;
43280;PMS5003;62175;49.416;8.690;2022-11-20T05:40:38;13;12;
43280;PMS5003;62175;49.416;8.690;2022-11-20T05:43:05;23;17;
43280;PMS5003;62175;49.416;8.690;2022-11-20T05:45:31;19;18;
43280;PMS5003;62175;49.416;8.690;2022-11-20T05:47:59;18;16;
43280;PMS5003;62175;49.416;8.690;2022-11-20T05:50:27;18;17;
43280;PMS5003;62175;49.416;8.690;2022-11-20T05:52:54;19;15;
43280;PMS5003;62175;49.416;8.690;2022-11-20T05:55:24;15;13;
43280;PMS5003;62175;49.416;8.690;2022-11-20T05:57:52;14;13;
43280;PMS5003;62175;49.416;8.690;2022-11-20T06:00:20;18;15;
43280;PMS5003;62175;49.416;8.690;2022-11-20T06:02:48;14;14;
43280;PMS5003;62175;49.416;8.690;2022-11-20T06:05:16;14;13;
43280;PMS5003;62175;49.416;8.690;2022-11-20T06:07:43;17;14;
43280;PMS5003;62175;49.416;8.690;2022-11-20T06:10:10;17;16;
43280;PMS5003;62175;49.416;8.690;2022-11-20T06:12:38;21;17;
43280;PMS5003;62175;49.416;8.690;2022-11-20T06:15:05;16;16;
43280;PMS5003;62175;49.416;8.690;2022-11-20T06:17:33;17;16;
43280;PMS5003;62175;49.416;8.690;2022-11-20T06:20:00;14;13;
43280;PMS5003;62175;49.416;8.690;2022-11-20T06:22:28;18;17;
43280;PMS5003;62175;49.416;8.690;2022-11-20T06:24:54;18;15;
43280;PMS5003;62175;49.416;8.690;2022-11-20T06:27:22;20;17;
43280;PMS5003;62175;49.416;8.690;2022-11-20T06:29:48;20;18;
43280;PMS5003;62175;49.416;8.690;2022-11-20T06:32:16;14;14;
43280;PMS5003;62175;49.416;8.690;2022-11-20T06:34:43;23;18;
43280;PMS5003;62175;49.416;8.690;2022-11-20T06:37:10;22;18;
43280;PMS5003;62175;49.416;8.690;2022-11-20T06:39:37;16;15;
43280;PMS5003;62175;49.416;8.690;2022-11-20T06:42:04;13;13;
43280;PMS5003;62175;49.416;8.690;2022-11-20T06:44:32;14;14;
43280;PMS5003;62175;49.416;8.690;2022-11-20T06:46:59;13;12;
43280;PMS5003;62175;49.416;8.690;2022-11-20T06:49:26;16;13;
43280;PMS5003;62175;49.416;8.690;2022-11-20T06:51:53;20;16;
43280;PMS5003;62175;49.416;8.690;2022-11-20T06:54:20;11;11;
43280;PMS5003;62175;49.416;8.690;2022-11-20T06:56:48;13;11;
43280;PMS5003;62175;49.416;8.690;2022-11-20T06:59:15;14;13;
43280;PMS5003;62175;49.416;8.690;2022-11-20T07:01:42;12;10;
43280;PMS5003;62175;49.416;8.690;2022-11-20T07:04:09;11;10;
43280;PMS5003;62175;49.416;8.690;2022-11-20T07:06:36;11;9;
43280;PMS5003;62175;49.416;8.690;2022-11-20T07:09:04;13;12;
43280;PMS5003;62175;49.416;8.690;2022-11-20T07:11:31;13;11;
43280;PMS5003;62175;49.416;8.690;2022-11-20T07:13:58;12;10;
43280;PMS5003;62175;49.416;8.690;2022-11-20T07:16:25;11;10;
43280;PMS5003;62175;49.416;8.690;2022-11-20T07:18:53;11;10;
43280;PMS5003;62175;49.416;8.690;2022-11-20T07:21:20;11;10;
43280;PMS5003;62175;49.416;8.690;2022-11-20T07:23:47;9;9;
43280;PMS5003;62175;49.416;8.690;2022-11-20T07:26:14;12;9;
43280;PMS5003;62175;49.416;8.690;2022-11-20T07:28:43;11;11;
43280;PMS5003;62175;49.416;8.690;2022-11-20T07:31:11;14;13;
43280;PMS5003;62175;49.416;8.690;2022-11-20T07:33:39;14;14;
43280;PMS5003;62175;49.416;8.690;2022-11-20T07:36:07;14;12;
43280;PMS5003;62175;49.416;8.690;2022-11-20T07:38:34;16;14;
43280;PMS5003;62175;49.416;8.690;2022-11-20T07:41:03;12;11;
43280;PMS5003;62175;49.416;8.690;2022-11-20T07:43:30;12;10;
43280;PMS5003;62175;49.416;8.690;2022-11-20T07:45:57;12;12;
43280;PMS5003;62175;49.416;8.690;2022-11-20T07:48:25;12;11;
43280;PMS5003;62175;49.416;8.690;2022-11-20T07:50:54;14;13;
43280;PMS5003;62175;49.416;8.690;2022-11-20T07:53:23;14;13;
43280;PMS5003;62175;49.416;8.690;2022-11-20T07:55:51;12;11;
43280;PMS5003;62175;49.416;8.690;2022-11-20T07:58:18;13;11;
43280;PMS5003;62175;49.416;8.690;2022-11-20T08:00:45;12;11;
43280;PMS5003;62175;49.416;8.690;2022-11-20T08:03:12;13;12;
43280;PMS5003;62175;49.416;8.690;2022-11-20T08:05:39;11;11;
43280;PMS5003;62175;49.416;8.690;2022-11-20T08:08:07;11;11;
43280;PMS5003;62175;49.416;8.690;2022-11-20T08:10:34;10;9;
43280;PMS5003;62175;49.416;8.690;2022-11-20T08:13:01;12;10;
43280;PMS5003;62175;49.416;8.690;2022-11-20T08:15:29;11;10;
43280;PMS5003;62175;49.416;8.690;2022-11-20T08:18:05;11;10;
43280;PMS5003;62175;49.416;8.690;2022-11-20T08:20:33;13;11;
43280;PMS5003;62175;49.416;8.690;2022-11-20T08:23:01;13;11;
43280;PMS5003;62175;49.416;8.690;2022-11-20T08:25:29;10;10;
43280;PMS5003;62175;49.416;8.690;2022-11-20T08:27:57;11;11;
43280;PMS5003;62175;49.416;8.690;2022-11-20T08:30:25;9;9;
43280;PMS5003;62175;49.416;8.690;2022-11-20T08:32:52;10;10;
43280;PMS5003;62175;49.416;8.690;2022-11-20T08:35:20;12;11;
43280;PMS5003;62175;49.416;8.690;2022-11-20T08:37:48;12;11;
43280;PMS5003;62175;49.416;8.690;2022-11-20T08:40:16;11;11;
43280;PMS5003;62175;49.416;8.690;2022-11-20T08:42:47;11;10;
43280;PMS5003;62175;49.416;8.690;2022-11-20T08:45:15;10;9;
43280;PMS5003;62175;49.416;8.690;2022-11-20T08:47:43;10;9;
43280;PMS5003;62175;49.416;8.690;2022-11-20T08:50:11;8;8;
43280;PMS5003;62175;49.416;8.690;2022-11-20T08:52:40;12;11;
43280;PMS5003;62175;49.416;8.690;2022-11-20T08:55:08;8;8;
43280;PMS5003;62175;49.416;8.690;2022-11-20T08:57:36;10;9;
43280;PMS5003;62175;49.416;8.690;2022-11-20T09:00:05;9;8;
43280;PMS5003;62175;49.416;8.690;2022-11-20T09:02:33;11;10;
43280;PMS5003;62175;49.416;8.690;2022-11-20T09:05:01;10;9;
43280;PMS5003;62175;49.416;8.690;2022-11-20T09:07:28;8;8;
43280;PMS5003;62175;49.416;8.690;2022-11-20T09:09:55;10;10;
43280;PMS5003;62175;49.416;8.690;2022-11-20T09:12:22;10;10;
43280;PMS5003;62175;49.416;8.690;2022-11-20T09:14:50;9;8;
43280;PMS5003;62175;49.416;8.690;2022-11-20T09:17:17;8;8;
43280;PMS5003;62175;49.416;8.690;2022-11-20T09:19:44;15;15;
43280;PMS5003;62175;49.416;8.690;2022-11-20T09:22:11;9;8;
43280;PMS5003;62175;49.416;8.690;2022-11-20T09:24:39;12;10;
43280;PMS5003;62175;49.416;8.690;2022-11-20T09:27:06;10;9;
43280;PMS5003;62175;49.416;8.690;2022-11-20T09:29:33;12;11;
43280;PMS5003;62175;49.416;8.690;2022-11-20T09:32:00;12;10;
43280;PMS5003;62175;49.416;8.690;2022-11-20T09:34:27;12;10;
43280;PMS5003;62175;49.416;8.690;2022-11-20T09:36:54;11;10;
43280;PMS5003;62175;49.416;8.690;2022-11-20T09:39:21;10;9;
43280;PMS5003;62175;49.416;8.690;2022-11-20T09:41:54;12;10;
43280;PMS5003;62175;49.416;8.690;2022-11-20T09:44:33;9;9;
43280;PMS5003;62175;49.416;8.690;2022-11-20T09:47:16;12;11;
43280;PMS5003;62175;49.416;8.690;2022-11-20T09:49:58;11;10;
43280;PMS5003;62175;49.416;8.690;2022-11-20T09:52:44;11;11;
43280;PMS5003;62175;49.416;8.690;2022-11-20T09:55:21;10;10;
43280;PMS5003;62175;49.416;8.690;2022-11-20T09:57:48;8;8;
43280;PMS5003;62175;49.416;8.690;2022-11-20T10:00:17;11;10;
43280;PMS5003;62175;49.416;8.690;2022-11-20T10:02:46;11;9;
43280;PMS5003;62175;49.416;8.690;2022-11-20T10:05:20;10;10;
43280;PMS5003;62175;49.416;8.690;2022-11-20T10:07:53;13;12;
43280;PMS5003;62175;49.416;8.690;2022-11-20T10:10:34;10;10;
43280;PMS5003;62175;49.416;8.690;2022-11-20T10:13:12;11;10;
43280;PMS5003;62175;49.416;8.690;2022-11-20T10:15:50;12;11;
43280;PMS5003;62175;49.416;8.690;2022-11-20T10:18:30;11;10;
43280;PMS5003;62175;49.416;8.690;2022-11-20T10:21:11;18;16;
43280;PMS5003;62175;49.416;8.690;2022-11-20T10:23:59;21;18;
43280;PMS5003;62175;49.416;8.690;2022-11-20T10:26:37;17;16;
43280;PMS5003;62175;49.416;8.690;2022-11-20T10:29:11;14;14;
43280;PMS5003;62175;49.416;8.690;2022-11-20T10:31:40;18;16;
43280;PMS5003;62175;49.416;8.690;2022-11-20T10:34:14;17;16;
43280;PMS5003;62175;49.416;8.690;2022-11-20T10:36:50;21;20;
43280;PMS5003;62175;49.416;8.690;2022-11-20T10:39:24;16;15;
43280;PMS5003;62175;49.416;8.690;2022-11-20T10:42:01;17;17;
43280;PMS5003;62175;49.416;8.690;2022-11-20T10:44:29;13;12;
43280;PMS5003;62175;49.416;8.690;2022-11-20T10:46:57;16;15;
43280;PMS5003;62175;49.416;8.690;2022-11-20T10:49:25;16;15;
43280;PMS5003;62175;49.416;8.690;2022-11-20T10:51:56;21;20;
43280;PMS5003;62175;49.416;8.690;2022-11-20T10:54:33;17;15;
43280;PMS5003;62175;49.416;8.690;2022-11-20T10:57:07;19;17;
43280;PMS5003;62175;49.416;8.690;2022-11-20T10:59:51;15;14;
43280;PMS5003;62175;49.416;8.690;2022-11-20T11:02:31;19;18;
43280;PMS5003;62175;49.416;8.690;2022-11-20T11:05:06;18;16;
43280;PMS5003;62175;49.416;8.690;2022-11-20T11:07:40;17;17;
43280;PMS5003;62175;49.416;8.690;2022-11-20T11:10:13;17;15;
43280;PMS5003;62175;49.416;8.690;2022-11-20T11:12:44;17;17;
43280;PMS5003;62175;49.416;8.690;2022-11-20T11:15:14;16;14;
43280;PMS5003;62175;49.416;8.690;2022-11-20T11:17:51;17;15;
43280;PMS5003;62175;49.416;8.690;2022-11-20T11:20:19;19;18;
43280;PMS5003;62175;49.416;8.690;2022-11-20T11:22:48;20;18;
43280;PMS5003;62175;49.416;8.690;2022-11-20T11:25:19;20;20;
43280;PMS5003;62175;49.416;8.690;2022-11-20T11:27:49;20;19;
43280;PMS5003;62175;49.416;8.690;2022-11-20T11:30:18;19;16;
43280;PMS5003;62175;49.416;8.690;2022-11-20T11:32:47;17;16;
43280;PMS5003;62175;49.416;8.690;2022-11-20T11:35:22;19;18;
43280;PMS5003;62175;49.416;8.690;2022-11-20T11:37:53;17;16;
43280;PMS5003;62175;49.416;8.690;2022-11-20T11:40:29;21;18;
43280;PMS5003;62175;49.416;8.690;2022-11-20T11:42:59;17;16;
43280;PMS5003;62175;49.416;8.690;2022-11-20T11:45:28;20;19;
43280;PMS5003;62175;49.416;8.690;2022-11-20T11:47:56;18;14;
43280;PMS5003;62175;49.416;8.690;2022-11-20T11:50:26;20;19;
43280;PMS5003;62175;49.416;8.690;2022-11-20T11:52:56;12;12;
43280;PMS5003;62175;49.416;8.690;2022-11-20T11:55:34;17;14;
43280;PMS5003;62175;49.416;8.690;2022-11-20T11:58:10;15;14;
43280;PMS5003;62175;49.416;8.690;2022-11-20T12:00:47;20;17;
43280;PMS5003;62175;49.416;8.690;2022-11-20T12:03:21;22;20;
43280;PMS5003;62175;49.416;8.690;2022-11-20T12:05:55;18;16;
43280;PMS5003;62175;49.416;8.690;2022-11-20T12:08:27;17;15;
43280;PMS5003;62175;49.416;8.690;2022-11-20T12:11:03;16;15;
43280;PMS5003;62175;49.416;8.690;2022-11-20T12:13:42;18;16;
43280;PMS5003;62175;49.416;8.690;2022-11-20T12:16:16;17;15;
43280;PMS5003;62175;49.416;8.690;2022-11-20T12:18:45;21;20;
43280;PMS5003;62175;49.416;8.690;2022-11-20T12:21:18;15;15;
43280;PMS5003;62175;49.416;8.690;2022-11-20T12:23:52;16;16;
43280;PMS5003;62175;49.416;8.690;2022-11-20T12:26:34;18;16;
43280;PMS5003;62175;49.416;8.690;2022-11-20T12:29:13;21;20;
43280;PMS5003;62175;49.416;8.690;2022-11-20T12:31:54;19;17;
43280;PMS5003;62175;49.416;8.690;2022-11-20T12:34:40;18;15;
43280;PMS5003;62175;49.416;8.690;2022-11-20T12:37:18;13;13;
43280;PMS5003;62175;49.416;8.690;2022-11-20T12:39:55;12;12;
43280;PMS5003;62175;49.416;8.690;2022-11-20T12:42:34;16;16;
43280;PMS5003;62175;49.416;8.690;2022-11-20T12:45:17;21;18;
43280;PMS5003;62175;49.416;8.690;2022-11-20T12:49:09;20;20;
43280;PMS5003;62175;49.416;8.690;2022-11-20T12:52:21;19;17;
43280;PMS5003;62175;49.416;8.690;2022-11-20T12:55:07;18;18;
43280;PMS5003;62175;49.416;8.690;2022-11-20T12:57:41;17;16;
43280;PMS5003;62175;49.416;8.690;2022-11-20T13:00:17;21;16;
43280;PMS5003;62175;49.416;8.690;2022-11-20T13:02:56;22;20;
43280;PMS5003;62175;49.416;8.690;2022-11-20T13:05:43;23;22;
43280;PMS5003;62175;49.416;8.690;2022-11-20T13:08:20;16;15;
43280;PMS5003;62175;49.416;8.690;2022-11-20T13:10:51;19;18;
43280;PMS5003;62175;49.416;8.690;2022-11-20T13:13:29;16;16;
43280;PMS5003;62175;49.416;8.690;2022-11-20T13:16:08;13;12;
43280;PMS5003;62175;49.416;8.690;2022-11-20T13:18:42;16;15;
43280;PMS5003;62175;49.416;8.690;2022-11-20T13:21:14;19;17;
43280;PMS5003;62175;49.416;8.690;2022-11-20T13:23:44;7;7;
43280;PMS5003;62175;49.416;8.690;2022-11-20T13:26:15;6;6;
43280;PMS5003;62175;49.416;8.690;2022-11-20T13:28:45;6;5;
43280;PMS5003;62175;49.416;8.690;2022-11-20T13:31:24;5;4;
43280;PMS5003;62175;49.416;8.690;2022-11-20T13:33:57;1;1;
43280;PMS5003;62175;49.416;8.690;2022-11-20T13:36:26;2;2;
43280;PMS5003;62175;49.416;8.690;2022-11-20T13:38:55;3;3;
43280;PMS5003;62175;49.416;8.690;2022-11-20T13:41:24;4;4;
43280;PMS5003;62175;49.416;8.690;2022-11-20T13:43:52;4;4;
43280;PMS5003;62175;49.416;8.690;2022-11-20T13:46:20;2;2;
43280;PMS5003;62175;49.416;8.690;2022-11-20T13:48:48;4;4;
43280;PMS5003;62175;49.416;8.690;2022-11-20T13:51:28;4;3;
43280;PMS5003;62175;49.416;8.690;2022-11-20T13:54:05;6;5;
43280;PMS5003;62175;49.416;8.690;2022-11-20T13:56:48;5;5;
43280;PMS5003;62175;49.416;8.690;2022-11-20T13:59:29;2;2;
43280;PMS5003;62175;49.416;8.690;2022-11-20T14:02:09;5;4;
43280;PMS5003;62175;49.416;8.690;2022-11-20T14:04:41;2;1;
43280;PMS5003;62175;49.416;8.690;2022-11-20T14:07:11;3;3;
43280;PMS5003;62175;49.416;8.690;2022-11-20T14:09:48;4;3;
43280;PMS5003;62175;49.416;8.690;2022-11-20T14:12:17;2;2;
43280;PMS5003;62175;49.416;8.690;2022-11-20T14:14:47;1;1;
43280;PMS5003;62175;49.416;8.690;2022-11-20T14:17:18;1;1;
43280;PMS5003;62175;49.416;8.690;2022-11-20T14:19:47;2;1;
43280;PMS5003;62175;49.416;8.690;2022-11-20T14:22:18;1;1;
43280;PMS5003;62175;49.416;8.690;2022-11-20T14:24:47;2;2;
43280;PMS5003;62175;49.416;8.690;2022-11-20T14:27:16;2;2;
43280;PMS5003;62175;49.416;8.690;2022-11-20T14:29:46;3;3;
43280;PMS5003;62175;49.416;8.690;2022-11-20T14:32:16;0;0;
43280;PMS5003;62175;49.416;8.690;2022-11-20T14:34:46;2;2;
43280;PMS5003;62175;49.416;8.690;2022-11-20T14:37:17;2;2;
43280;PMS5003;62175;49.416;8.690;2022-11-20T14:39:49;1;1;
43280;PMS5003;62175;49.416;8.690;2022-11-20T14:42:18;2;2;
43280;PMS5003;62175;49.416;8.690;2022-11-20T14:44:46;1;1;
43280;PMS5003;62175;49.416;8.690;2022-11-20T14:47:17;2;2;
43280;PMS5003;62175;49.416;8.690;2022-11-20T14:49:47;2;2;
43280;PMS5003;62175;49.416;8.690;2022-11-20T14:52:16;2;2;
43280;PMS5003;62175;49.416;8.690;2022-11-20T14:54:45;2;1;
43280;PMS5003;62175;49.416;8.690;2022-11-20T14:57:22;3;2;
43280;PMS5003;62175;49.416;8.690;2022-11-20T14:59:51;2;2;
43280;PMS5003;62175;49.416;8.690;2022-11-20T15:02:31;4;3;
43280;PMS5003;62175;49.416;8.690;2022-11-20T15:05:00;3;3;
43280;PMS5003;62175;49.416;8.690;2022-11-20T15:07:29;2;2;
43280;PMS5003;62175;49.416;8.690;2022-11-20T15:09:59;4;4;
43280;PMS5003;62175;49.416;8.690;2022-11-20T15:12:28;3;3;
43280;PMS5003;62175;49.416;8.690;2022-11-20T15:14:57;3;3;
43280;PMS5003;62175;49.416;8.690;2022-11-20T15:17:24;3;3;
43280;PMS5003;62175;49.416;8.690;2022-11-20T15:19:51;2;2;
43280;PMS5003;62175;49.416;8.690;2022-11-20T15:22:20;4;4;
43280;PMS5003;62175;49.416;8.690;2022-11-20T15:24:47;3;2;
43280;PMS5003;62175;49.416;8.690;2022-11-20T15:27:14;3;2;
43280;PMS5003;62175;49.416;8.690;2022-11-20T15:29:42;1;1;
43280;PMS5003;62175;49.416;8.690;2022-11-20T15:32:09;2;2;
43280;PMS5003;62175;49.416;8.690;2022-11-20T15:34:36;2;2;
43280;PMS5003;62175;49.416;8.690;2022-11-20T15:37:03;3;2;
43280;PMS5003;62175;49.416;8.690;2022-11-20T15:39:31;3;2;
43280;PMS5003;62175;49.416;8.690;2022-11-20T15:41:58;4;4;
43280;PMS5003;62175;49.416;8.690;2022-11-20T15:44:25;4;4;
43280;PMS5003;62175;49.416;8.690;2022-11-20T15:46:52;6;5;
43280;PMS5003;62175;49.416;8.690;2022-11-20T15:49:20;6;4;
43280;PMS5003;62175;49.416;8.690;2022-11-20T15:51:48;5;5;
43280;PMS5003;62175;49.416;8.690;2022-11-20T15:54:16;6;6;
43280;PMS5003;62175;49.416;8.690;2022-11-20T15:56:45;5;5;
43280;PMS5003;62175;49.416;8.690;2022-11-20T15:59:13;6;5;
43280;PMS5003;62175;49.416;8.690;2022-11-20T16:01:40;9;6;
43280;PMS5003;62175;49.416;8.690;2022-11-20T16:04:09;6;6;
43280;PMS5003;62175;49.416;8.690;2022-11-20T16:06:37;10;8;
43280;PMS5003;62175;49.416;8.690;2022-11-20T16:09:05;7;7;
43280;PMS5003;62175;49.416;8.690;2022-11-20T16:11:32;5;4;
43280;PMS5003;62175;49.416;8.690;2022-11-20T16:14:00;4;4;
43280;PMS5003;62175;49.416;8.690;2022-11-20T16:16:29;6;6;
43280;PMS5003;62175;49.416;8.690;2022-11-20T16:18:58;7;5;
43280;PMS5003;62175;49.416;8.690;2022-11-20T16:21:25;8;7;
43280;PMS5003;62175;49.416;8.690;2022-11-20T16:23:52;8;7;
43280;PMS5003;62175;49.416;8.690;2022-11-20T16:26:20;8;7;
43280;PMS5003;62175;49.416;8.690;2022-11-20T16:28:47;6;6;
43280;PMS5003;62175;49.416;8.690;2022-11-20T16:31:15;9;9;
43280;PMS5003;62175;49.416;8.690;2022-11-20T16:33:48;8;8;
43280;PMS5003;62175;49.416;8.690;2022-11-20T16:36:15;9;9;
43280;PMS5003;62175;49.416;8.690;2022-11-20T16:38:43;10;10;
43280;PMS5003;62175;49.416;8.690;2022-11-20T16:41:10;6;5;
43280;PMS5003;62175;49.416;8.690;2022-11-20T16:43:38;6;6;
43280;PMS5003;62175;49.416;8.690;2022-11-20T16:46:11;6;5;
43280;PMS5003;62175;49.416;8.690;2022-11-20T16:48:38;5;4;